sensor_id;sensor_type;location;lat;lon;timestamp;pressure;altitude;pressure_sealevel;temperature;humidity
10688;BME280;5392;42.688;23.298;2023-04-09T00:00:11;57409.25;;;-144.48;100.00
10688;BME280;5392;42.688;23.298;2023-04-09T00:02:38;57428.03;;;-144.48;100.00
10688;BME280;5392;42.688;23.298;2023-04-09T00:05:05;57425.94;;;-144.48;100.00
10688;BME280;5392;42.688;23.298;2023-04-09T00:07:35;57430.13;;;-144.48;100.00
10688;BME280;5392;42.688;23.298;2023-04-09T00:10:01;57411.34;;;-144.48;100.00
10688;BME280;5392;42.688;23.298;2023-04-09T00:12:28;57440.56;;;-144.48;100.00
10688;BME280;5392;42.688;23.298;2023-04-09T00:14:56;57421.78;;;-144.48;100.00
10688;BME280;5392;42.688;23.298;2023-04-09T00:17:23;57455.16;;;-144.48;100.00
10688;BME280;5392;42.688;23.298;2023-04-09T00:19:50;57471.88;;;-144.48;100.00
10688;BME280;5392;42.688;23.298;2023-04-09T00:22:16;57436.38;;;-144.48;100.00
10688;BME280;5392;42.688;23.298;2023-04-09T00:24:43;57438.47;;;-144.48;100.00
10688;BME280;5392;42.688;23.298;2023-04-09T00:27:09;57457.25;;;-144.48;100.00
10688;BME280;5392;42.688;23.298;2023-04-09T00:29:36;57476.03;;;-144.48;100.00
10688;BME280;5392;42.688;23.298;2023-04-09T00:32:03;57461.44;;;-144.48;100.00
10688;BME280;5392;42.688;23.298;2023-04-09T00:34:30;57430.13;;;-144.48;100.00
10688;BME280;5392;42.688;23.298;2023-04-09T00:36:57;57446.81;;;-144.48;100.00
10688;BME280;5392;42.688;23.298;2023-04-09T00:39:23;57446.81;;;-144.48;100.00
10688;BME280;5392;42.688;23.298;2023-04-09T00:41:58;57448.91;;;-144.48;100.00
10688;BME280;5392;42.688;23.298;2023-04-09T00:44:25;57471.88;;;-144.48;100.00
10688;BME280;5392;42.688;23.298;2023-04-09T00:46:53;57413.44;;;-144.48;100.00
10688;BME280;5392;42.688;23.298;2023-04-09T00:49:20;57459.34;;;-144.48;100.00
10688;BME280;5392;42.688;23.298;2023-04-09T00:51:47;57425.94;;;-144.48;100.00
10688;BME280;5392;42.688;23.298;2023-04-09T00:54:14;57501.09;;;-144.48;100.00
10688;BME280;5392;42.688;23.298;2023-04-09T00:56:41;57400.91;;;-144.48;100.00
10688;BME280;5392;42.688;23.298;2023-04-09T00:59:09;57484.41;;;-144.48;100.00
10688;BME280;5392;42.688;23.298;2023-04-09T01:01:35;57428.03;;;-144.48;100.00
10688;BME280;5392;42.688;23.298;2023-04-09T01:04:02;57415.50;;;-144.48;100.00
10688;BME280;5392;42.688;23.298;2023-04-09T01:06:41;57465.59;;;-144.48;100.00
10688;BME280;5392;42.688;23.298;2023-04-09T01:09:21;57446.81;;;-144.48;100.00
10688;BME280;5392;42.688;23.298;2023-04-09T01:14:56;57455.16;;;-144.48;100.00
10688;BME280;5392;42.688;23.298;2023-04-09T01:17:32;57419.69;;;-144.48;100.00
10688;BME280;5392;42.688;23.298;2023-04-09T01:20:11;57425.94;;;-144.48;100.00
10688;BME280;5392;42.688;23.298;2023-04-09T01:22:47;57430.13;;;-144.48;100.00
10688;BME280;5392;42.688;23.298;2023-04-09T01:30:33;57459.34;;;-144.48;100.00
10688;BME280;5392;42.688;23.298;2023-04-09T01:33:00;57442.66;;;-144.48;100.00
10688;BME280;5392;42.688;23.298;2023-04-09T01:35:27;57465.59;;;-144.48;100.00
10688;BME280;5392;42.688;23.298;2023-04-09T01:37:54;57455.16;;;-144.48;100.00
10688;BME280;5392;42.688;23.298;2023-04-09T01:40:22;57442.66;;;-144.48;100.00
10688;BME280;5392;42.688;23.298;2023-04-09T01:42:49;57423.88;;;-144.48;100.00
10688;BME280;5392;42.688;23.298;2023-04-09T01:45:17;57457.25;;;-144.48;100.00
10688;BME280;5392;42.688;23.298;2023-04-09T01:47:44;57442.66;;;-144.48;100.00
10688;BME280;5392;42.688;23.298;2023-04-09T01:50:11;57451.00;;;-144.48;100.00
10688;BME280;5392;42.688;23.298;2023-04-09T01:52:38;57459.34;;;-144.48;100.00
10688;BME280;5392;42.688;23.298;2023-04-09T01:55:05;57430.13;;;-144.48;100.00
10688;BME280;5392;42.688;23.298;2023-04-09T01:57:32;57505.25;;;-144.48;100.00
10688;BME280;5392;42.688;23.298;2023-04-09T01:59:58;57490.66;;;-144.48;100.00
10688;BME280;5392;42.688;23.298;2023-04-09T02:02:36;57469.78;;;-144.48;100.00
10688;BME280;5392;42.688;23.298;2023-04-09T02:05:09;57421.78;;;-144.48;100.00
10688;BME280;5392;42.688;23.298;2023-04-09T02:07:41;57394.63;;;-144.48;100.00
10688;BME280;5392;42.688;23.298;2023-04-09T02:10:10;57446.81;;;-144.48;100.00
10688;BME280;5392;42.688;23.298;2023-04-09T02:12:41;57440.56;;;-144.48;100.00
10688;BME280;5392;42.688;23.298;2023-04-09T02:15:11;57442.66;;;-144.48;100.00
10688;BME280;5392;42.688;23.298;2023-04-09T02:17:38;57438.47;;;-144.48;100.00
10688;BME280;5392;42.688;23.298;2023-04-09T02:20:05;57471.88;;;-144.48;100.00
10688;BME280;5392;42.688;23.298;2023-04-09T02:22:32;57411.34;;;-144.48;100.00
10688;BME280;5392;42.688;23.298;2023-04-09T02:24:59;57476.03;;;-144.48;100.00
10688;BME280;5392;42.688;23.298;2023-04-09T02:27:25;57430.13;;;-144.48;100.00
10688;BME280;5392;42.688;23.298;2023-04-09T02:29:52;57451.00;;;-144.48;100.00
10688;BME280;5392;42.688;23.298;2023-04-09T02:32:19;57415.50;;;-144.48;100.00
10688;BME280;5392;42.688;23.298;2023-04-09T02:34:45;57444.72;;;-144.48;100.00
10688;BME280;5392;42.688;23.298;2023-04-09T02:37:12;57457.25;;;-144.48;100.00
10688;BME280;5392;42.688;23.298;2023-04-09T02:39:38;57465.59;;;-144.48;100.00
10688;BME280;5392;42.688;23.298;2023-04-09T02:42:05;57448.91;;;-144.48;100.00
10688;BME280;5392;42.688;23.298;2023-04-09T02:44:33;57421.78;;;-144.48;100.00
10688;BME280;5392;42.688;23.298;2023-04-09T02:47:00;57480.22;;;-144.48;100.00
10688;BME280;5392;42.688;23.298;2023-04-09T02:49:26;57436.38;;;-144.48;100.00
10688;BME280;5392;42.688;23.298;2023-04-09T02:51:56;57430.13;;;-144.48;100.00
10688;BME280;5392;42.688;23.298;2023-04-09T02:54:22;57423.88;;;-144.48;100.00
10688;BME280;5392;42.688;23.298;2023-04-09T02:56:49;57444.72;;;-144.48;100.00
10688;BME280;5392;42.688;23.298;2023-04-09T02:59:16;57442.66;;;-144.48;100.00
10688;BME280;5392;42.688;23.298;2023-04-09T03:01:43;57442.66;;;-144.48;100.00
10688;BME280;5392;42.688;23.298;2023-04-09T03:04:10;57463.53;;;-144.48;100.00
10688;BME280;5392;42.688;23.298;2023-04-09T03:06:37;57455.16;;;-144.48;100.00
10688;BME280;5392;42.688;23.298;2023-04-09T03:09:04;57448.91;;;-144.48;100.00
10688;BME280;5392;42.688;23.298;2023-04-09T03:11:31;57442.66;;;-144.48;100.00
10688;BME280;5392;42.688;23.298;2023-04-09T03:13:58;57415.50;;;-144.48;100.00
10688;BME280;5392;42.688;23.298;2023-04-09T03:16:24;57446.81;;;-144.48;100.00
10688;BME280;5392;42.688;23.298;2023-04-09T03:18:51;57465.59;;;-144.48;100.00
10688;BME280;5392;42.688;23.298;2023-04-09T03:21:19;57411.34;;;-144.48;100.00
10688;BME280;5392;42.688;23.298;2023-04-09T03:23:46;57430.13;;;-144.48;100.00
10688;BME280;5392;42.688;23.298;2023-04-09T03:26:13;57436.38;;;-144.48;100.00
10688;BME280;5392;42.688;23.298;2023-04-09T03:28:39;57467.69;;;-144.48;100.00
10688;BME280;5392;42.688;23.298;2023-04-09T03:31:06;57448.91;;;-144.48;100.00
10688;BME280;5392;42.688;23.298;2023-04-09T03:33:33;57461.44;;;-144.48;100.00
10688;BME280;5392;42.688;23.298;2023-04-09T03:35:59;57459.34;;;-144.48;100.00
10688;BME280;5392;42.688;23.298;2023-04-09T03:38:26;57457.25;;;-144.48;100.00
10688;BME280;5392;42.688;23.298;2023-04-09T03:40:55;57469.78;;;-144.48;100.00
10688;BME280;5392;42.688;23.298;2023-04-09T03:43:21;57442.66;;;-144.48;100.00
10688;BME280;5392;42.688;23.298;2023-04-09T03:45:48;57438.47;;;-144.48;100.00
10688;BME280;5392;42.688;23.298;2023-04-09T03:48:15;57442.66;;;-144.48;100.00
10688;BME280;5392;42.688;23.298;2023-04-09T03:50:42;57430.13;;;-144.48;100.00
10688;BME280;5392;42.688;23.298;2023-04-09T03:53:08;57469.78;;;-144.48;100.00
10688;BME280;5392;42.688;23.298;2023-04-09T03:55:36;57442.66;;;-144.48;100.00
10688;BME280;5392;42.688;23.298;2023-04-09T03:58:03;57480.22;;;-144.48;100.00
10688;BME280;5392;42.688;23.298;2023-04-09T04:00:29;57415.50;;;-144.48;100.00
10688;BME280;5392;42.688;23.298;2023-04-09T04:02:56;57446.81;;;-144.48;100.00
10688;BME280;5392;42.688;23.298;2023-04-09T04:05:23;57419.69;;;-144.48;100.00
10688;BME280;5392;42.688;23.298;2023-04-09T04:07:52;57428.03;;;-144.48;100.00
10688;BME280;5392;42.688;23.298;2023-04-09T04:10:19;57396.72;;;-144.48;100.00
10688;BME280;5392;42.688;23.298;2023-04-09T04:12:45;57417.59;;;-144.48;100.00
10688;BME280;5392;42.688;23.298;2023-04-09T04:15:12;57459.34;;;-144.48;100.00
10688;BME280;5392;42.688;23.298;2023-04-09T04:17:39;57459.34;;;-144.48;100.00
10688;BME280;5392;42.688;23.298;2023-04-09T04:20:06;57478.13;;;-144.48;100.00
10688;BME280;5392;42.688;23.298;2023-04-09T04:22:33;57417.59;;;-144.48;100.00
10688;BME280;5392;42.688;23.298;2023-04-09T04:25:02;57411.34;;;-144.48;100.00
10688;BME280;5392;42.688;23.298;2023-04-09T04:27:29;57430.13;;;-144.48;100.00
10688;BME280;5392;42.688;23.298;2023-04-09T04:29:56;57413.44;;;-144.48;100.00
10688;BME280;5392;42.688;23.298;2023-04-09T04:32:24;57403.00;;;-144.48;100.00
10688;BME280;5392;42.688;23.298;2023-04-09T04:34:51;57444.72;;;-144.48;100.00
10688;BME280;5392;42.688;23.298;2023-04-09T04:37:17;57469.78;;;-144.48;100.00
10688;BME280;5392;42.688;23.298;2023-04-09T04:39:44;57421.78;;;-144.48;100.00
10688;BME280;5392;42.688;23.298;2023-04-09T04:42:11;57467.69;;;-144.48;100.00
10688;BME280;5392;42.688;23.298;2023-04-09T04:44:37;57478.13;;;-144.48;100.00
10688;BME280;5392;42.688;23.298;2023-04-09T04:47:04;57453.09;;;-144.48;100.00
10688;BME280;5392;42.688;23.298;2023-04-09T04:49:31;57392.56;;;-144.48;100.00
10688;BME280;5392;42.688;23.298;2023-04-09T04:51:57;57465.59;;;-144.48;100.00
10688;BME280;5392;42.688;23.298;2023-04-09T04:54:24;57478.13;;;-144.48;100.00
10688;BME280;5392;42.688;23.298;2023-04-09T04:56:51;57453.09;;;-144.48;100.00
10688;BME280;5392;42.688;23.298;2023-04-09T04:59:18;57448.91;;;-144.48;100.00
10688;BME280;5392;42.688;23.298;2023-04-09T05:01:44;57411.34;;;-144.48;100.00
10688;BME280;5392;42.688;23.298;2023-04-09T05:04:11;57428.03;;;-144.48;100.00
10688;BME280;5392;42.688;23.298;2023-04-09T05:06:38;57451.00;;;-144.48;100.00
10688;BME280;5392;42.688;23.298;2023-04-09T05:09:04;57459.34;;;-144.48;100.00
10688;BME280;5392;42.688;23.298;2023-04-09T05:11:31;57436.38;;;-144.48;100.00
10688;BME280;5392;42.688;23.298;2023-04-09T05:13:58;57446.81;;;-144.48;100.00
10688;BME280;5392;42.688;23.298;2023-04-09T05:16:24;57430.13;;;-144.48;100.00
10688;BME280;5392;42.688;23.298;2023-04-09T05:18:51;57455.16;;;-144.48;100.00
10688;BME280;5392;42.688;23.298;2023-04-09T05:21:18;57455.16;;;-144.48;100.00
10688;BME280;5392;42.688;23.298;2023-04-09T05:23:44;57451.00;;;-144.48;100.00
10688;BME280;5392;42.688;23.298;2023-04-09T05:26:11;57440.56;;;-144.48;100.00
10688;BME280;5392;42.688;23.298;2023-04-09T05:28:38;57459.34;;;-144.48;100.00
10688;BME280;5392;42.688;23.298;2023-04-09T05:31:05;57465.59;;;-144.48;100.00
10688;BME280;5392;42.688;23.298;2023-04-09T05:33:38;57417.59;;;-144.48;100.00
10688;BME280;5392;42.688;23.298;2023-04-09T05:36:05;57465.59;;;-144.48;100.00
10688;BME280;5392;42.688;23.298;2023-04-09T05:38:32;57473.97;;;-144.48;100.00
10688;BME280;5392;42.688;23.298;2023-04-09T05:40:59;57421.78;;;-144.48;100.00
10688;BME280;5392;42.688;23.298;2023-04-09T05:43:26;57442.66;;;-144.48;100.00
10688;BME280;5392;42.688;23.298;2023-04-09T05:45:52;57425.94;;;-144.48;100.00
10688;BME280;5392;42.688;23.298;2023-04-09T05:48:19;57469.78;;;-144.48;100.00
10688;BME280;5392;42.688;23.298;2023-04-09T05:50:52;57432.22;;;-144.48;100.00
10688;BME280;5392;42.688;23.298;2023-04-09T05:53:21;57476.03;;;-144.48;100.00
10688;BME280;5392;42.688;23.298;2023-04-09T05:55:48;57436.38;;;-144.48;100.00
10688;BME280;5392;42.688;23.298;2023-04-09T05:58:15;57421.78;;;-144.48;100.00
10688;BME280;5392;42.688;23.298;2023-04-09T06:00:42;57417.59;;;-144.48;100.00
10688;BME280;5392;42.688;23.298;2023-04-09T06:03:08;57428.03;;;-144.48;100.00
10688;BME280;5392;42.688;23.298;2023-04-09T06:05:35;57467.69;;;-144.48;100.00
10688;BME280;5392;42.688;23.298;2023-04-09T06:08:02;57444.72;;;-144.48;100.00
10688;BME280;5392;42.688;23.298;2023-04-09T06:10:31;57457.25;;;-144.48;100.00
10688;BME280;5392;42.688;23.298;2023-04-09T06:12:58;57409.25;;;-144.48;100.00
10688;BME280;5392;42.688;23.298;2023-04-09T06:15:24;57455.16;;;-144.48;100.00
10688;BME280;5392;42.688;23.298;2023-04-09T06:17:51;57440.56;;;-144.48;100.00
10688;BME280;5392;42.688;23.298;2023-04-09T06:20:18;57421.78;;;-144.48;100.00
10688;BME280;5392;42.688;23.298;2023-04-09T06:22:44;57442.66;;;-144.48;100.00
10688;BME280;5392;42.688;23.298;2023-04-09T06:25:11;57432.22;;;-144.48;100.00
10688;BME280;5392;42.688;23.298;2023-04-09T06:27:38;57457.25;;;-144.48;96.40
10688;BME280;5392;42.688;23.298;2023-04-09T06:30:05;57425.94;;;-144.48;93.41
10688;BME280;5392;42.688;23.298;2023-04-09T06:32:32;57417.59;;;-144.48;93.49
10688;BME280;5392;42.688;23.298;2023-04-09T06:35:12;57448.91;;;-144.48;94.56
10688;BME280;5392;42.688;23.298;2023-04-09T06:37:39;57436.38;;;-144.48;93.24
10688;BME280;5392;42.688;23.298;2023-04-09T06:40:06;57417.59;;;-144.48;90.90
10688;BME280;5392;42.688;23.298;2023-04-09T06:42:33;57436.38;;;-144.48;91.18
10688;BME280;5392;42.688;23.298;2023-04-09T06:44:59;57421.78;;;-144.48;86.95
10688;BME280;5392;42.688;23.298;2023-04-09T06:47:26;57467.69;;;-144.48;87.10
10688;BME280;5392;42.688;23.298;2023-04-09T06:49:53;57425.94;;;-144.48;87.81
10688;BME280;5392;42.688;23.298;2023-04-09T06:52:19;57423.88;;;-144.48;90.32
10688;BME280;5392;42.688;23.298;2023-04-09T06:54:46;57451.00;;;-144.48;91.87
10688;BME280;5392;42.688;23.298;2023-04-09T06:57:12;57455.16;;;-144.48;94.46
10688;BME280;5392;42.688;23.298;2023-04-09T06:59:39;57457.25;;;-144.48;96.33
10688;BME280;5392;42.688;23.298;2023-04-09T07:02:06;57463.53;;;-144.48;97.51
10688;BME280;5392;42.688;23.298;2023-04-09T07:04:33;57465.59;;;-144.48;98.32
10688;BME280;5392;42.688;23.298;2023-04-09T07:07:00;57446.81;;;-144.48;98.79
10688;BME280;5392;42.688;23.298;2023-04-09T07:09:27;57476.03;;;-144.48;97.44
10688;BME280;5392;42.688;23.298;2023-04-09T07:11:54;57436.38;;;-144.48;97.98
10688;BME280;5392;42.688;23.298;2023-04-09T07:14:21;57421.78;;;-144.48;99.05
10688;BME280;5392;42.688;23.298;2023-04-09T07:16:47;57430.13;;;-144.48;99.61
10688;BME280;5392;42.688;23.298;2023-04-09T07:19:14;57440.56;;;-144.48;99.37
10688;BME280;5392;42.688;23.298;2023-04-09T07:21:41;57415.50;;;-144.48;98.69
10688;BME280;5392;42.688;23.298;2023-04-09T07:24:07;57457.25;;;-144.48;98.90
10688;BME280;5392;42.688;23.298;2023-04-09T07:26:34;57453.09;;;-144.48;98.38
10688;BME280;5392;42.688;23.298;2023-04-09T07:29:01;57400.91;;;-144.48;97.20
10688;BME280;5392;42.688;23.298;2023-04-09T07:31:29;57436.38;;;-144.48;98.52
10688;BME280;5392;42.688;23.298;2023-04-09T07:33:56;57442.66;;;-144.48;96.85
10688;BME280;5392;42.688;23.298;2023-04-09T07:36:22;57453.09;;;-144.48;94.01
10688;BME280;5392;42.688;23.298;2023-04-09T07:38:49;57465.59;;;-144.48;91.43
10688;BME280;5392;42.688;23.298;2023-04-09T07:41:16;57403.00;;;-144.48;90.33
10688;BME280;5392;42.688;23.298;2023-04-09T07:43:43;57430.13;;;-144.48;87.26
10688;BME280;5392;42.688;23.298;2023-04-09T07:46:10;57417.59;;;-144.48;82.60
10688;BME280;5392;42.688;23.298;2023-04-09T07:48:36;57436.38;;;-144.48;75.45
10688;BME280;5392;42.688;23.298;2023-04-09T07:51:03;57421.78;;;-144.48;77.81
10688;BME280;5392;42.688;23.298;2023-04-09T07:53:31;57394.63;;;-144.48;79.47
10688;BME280;5392;42.688;23.298;2023-04-09T07:55:58;57448.91;;;-144.48;78.36
10688;BME280;5392;42.688;23.298;2023-04-09T07:58:25;57392.56;;;-144.48;75.85
10688;BME280;5392;42.688;23.298;2023-04-09T08:00:51;57405.06;;;-144.48;73.59
10688;BME280;5392;42.688;23.298;2023-04-09T08:03:18;57415.50;;;-144.48;73.59
10688;BME280;5392;42.688;23.298;2023-04-09T08:05:45;57409.25;;;-144.48;75.60
10688;BME280;5392;42.688;23.298;2023-04-09T08:08:12;57413.44;;;-144.48;79.60
10688;BME280;5392;42.688;23.298;2023-04-09T08:10:38;57411.34;;;-144.48;78.45
10688;BME280;5392;42.688;23.298;2023-04-09T08:13:05;57451.00;;;-144.48;78.01
10688;BME280;5392;42.688;23.298;2023-04-09T08:15:32;57423.88;;;-144.48;80.46
10688;BME280;5392;42.688;23.298;2023-04-09T08:17:58;57425.94;;;-144.48;78.64
10688;BME280;5392;42.688;23.298;2023-04-09T08:20:27;57463.53;;;-144.48;77.85
10688;BME280;5392;42.688;23.298;2023-04-09T08:22:54;57388.38;;;-144.48;77.80
10688;BME280;5392;42.688;23.298;2023-04-09T08:25:21;57432.22;;;-144.48;74.24
10688;BME280;5392;42.688;23.298;2023-04-09T08:27:48;57413.44;;;-144.48;74.82
10688;BME280;5392;42.688;23.298;2023-04-09T08:30:15;57423.88;;;-144.48;74.72
10688;BME280;5392;42.688;23.298;2023-04-09T08:32:44;57436.38;;;-144.48;70.39
10688;BME280;5392;42.688;23.298;2023-04-09T08:35:11;57438.47;;;-144.48;71.03
10688;BME280;5392;42.688;23.298;2023-04-09T08:37:38;57421.78;;;-144.48;71.04
10688;BME280;5392;42.688;23.298;2023-04-09T08:40:05;57438.47;;;-144.48;72.16
10688;BME280;5392;42.688;23.298;2023-04-09T08:42:33;57417.59;;;-144.48;76.25
10688;BME280;5392;42.688;23.298;2023-04-09T08:45:04;57473.97;;;-144.48;74.72
10688;BME280;5392;42.688;23.298;2023-04-09T08:47:31;57432.22;;;-144.48;75.44
10688;BME280;5392;42.688;23.298;2023-04-09T08:49:59;57438.47;;;-144.48;77.65
10688;BME280;5392;42.688;23.298;2023-04-09T08:52:33;57438.47;;;-144.48;77.65
10688;BME280;5392;42.688;23.298;2023-04-09T08:55:00;57469.78;;;-144.48;79.57
10688;BME280;5392;42.688;23.298;2023-04-09T08:57:27;57457.25;;;-144.48;81.88
10688;BME280;5392;42.688;23.298;2023-04-09T08:59:54;57411.34;;;-144.48;79.43
10688;BME280;5392;42.688;23.298;2023-04-09T09:02:21;57440.56;;;-144.48;76.68
10688;BME280;5392;42.688;23.298;2023-04-09T09:04:49;57405.06;;;-144.48;76.32
10688;BME280;5392;42.688;23.298;2023-04-09T09:07:16;57455.16;;;-144.48;76.18
10688;BME280;5392;42.688;23.298;2023-04-09T09:09:57;57432.22;;;-144.48;79.30
10688;BME280;5392;42.688;23.298;2023-04-09T09:12:34;57476.03;;;-144.48;79.36
10688;BME280;5392;42.688;23.298;2023-04-09T09:15:02;57430.13;;;-144.48;78.73
10688;BME280;5392;42.688;23.298;2023-04-09T09:17:28;57394.63;;;-144.48;78.58
10688;BME280;5392;42.688;23.298;2023-04-09T09:19:56;57459.34;;;-144.48;79.87
10688;BME280;5392;42.688;23.298;2023-04-09T09:22:24;57453.09;;;-144.48;75.09
10688;BME280;5392;42.688;23.298;2023-04-09T09:24:52;57398.81;;;-144.48;73.73
10688;BME280;5392;42.688;23.298;2023-04-09T09:27:35;57417.59;;;-144.48;75.26
10688;BME280;5392;42.688;23.298;2023-04-09T09:30:03;57484.41;;;-144.48;74.37
10688;BME280;5392;42.688;23.298;2023-04-09T09:32:34;57413.44;;;-144.48;77.78
10688;BME280;5392;42.688;23.298;2023-04-09T09:35:04;57421.78;;;-144.48;78.48
10688;BME280;5392;42.688;23.298;2023-04-09T09:37:32;57467.69;;;-144.48;78.63
10688;BME280;5392;42.688;23.298;2023-04-09T09:39:59;57499.00;;;-144.48;77.84
10688;BME280;5392;42.688;23.298;2023-04-09T09:42:26;57407.16;;;-144.48;79.81
10688;BME280;5392;42.688;23.298;2023-04-09T09:44:53;57392.56;;;-144.48;78.33
10688;BME280;5392;42.688;23.298;2023-04-09T09:47:21;57446.81;;;-144.48;78.09
10688;BME280;5392;42.688;23.298;2023-04-09T09:49:49;57444.72;;;-144.48;77.18
10688;BME280;5392;42.688;23.298;2023-04-09T09:52:20;57463.53;;;-144.48;74.61
10688;BME280;5392;42.688;23.298;2023-04-09T09:54:50;57448.91;;;-144.48;75.13
10688;BME280;5392;42.688;23.298;2023-04-09T09:57:21;57455.16;;;-144.48;76.95
10688;BME280;5392;42.688;23.298;2023-04-09T09:59:53;57463.53;;;-144.48;76.04
10688;BME280;5392;42.688;23.298;2023-04-09T10:02:24;57438.47;;;-144.48;76.73
10688;BME280;5392;42.688;23.298;2023-04-09T10:04:59;57442.66;;;-144.48;75.50
10688;BME280;5392;42.688;23.298;2023-04-09T10:07:26;57409.25;;;-144.48;74.99
10688;BME280;5392;42.688;23.298;2023-04-09T10:09:55;57432.22;;;-144.48;72.21
10688;BME280;5392;42.688;23.298;2023-04-09T10:12:22;57446.81;;;-144.48;72.44
10688;BME280;5392;42.688;23.298;2023-04-09T10:14:51;57446.81;;;-144.48;71.93
10688;BME280;5392;42.688;23.298;2023-04-09T10:17:21;57478.13;;;-144.48;72.97
10688;BME280;5392;42.688;23.298;2023-04-09T10:19:58;57459.34;;;-144.48;69.24
10688;BME280;5392;42.688;23.298;2023-04-09T10:22:29;57436.38;;;-144.48;69.96
10688;BME280;5392;42.688;23.298;2023-04-09T10:24:58;57423.88;;;-144.48;70.28
10688;BME280;5392;42.688;23.298;2023-04-09T10:27:25;57444.72;;;-144.48;71.72
10688;BME280;5392;42.688;23.298;2023-04-09T10:29:53;57432.22;;;-144.48;71.94
10688;BME280;5392;42.688;23.298;2023-04-09T10:32:23;57461.44;;;-144.48;71.91
10688;BME280;5392;42.688;23.298;2023-04-09T10:34:57;57459.34;;;-144.48;69.16
10688;BME280;5392;42.688;23.298;2023-04-09T10:37:25;57438.47;;;-144.48;64.36
10688;BME280;5392;42.688;23.298;2023-04-09T10:39:53;57430.13;;;-144.48;64.86
10688;BME280;5392;42.688;23.298;2023-04-09T10:42:23;57440.56;;;-144.48;64.58
10688;BME280;5392;42.688;23.298;2023-04-09T10:45:08;57423.88;;;-144.48;65.40
10688;BME280;5392;42.688;23.298;2023-04-09T10:47:38;57461.44;;;-144.48;65.86
10688;BME280;5392;42.688;23.298;2023-04-09T10:50:37;57432.22;;;-144.48;64.37
10688;BME280;5392;42.688;23.298;2023-04-09T10:53:04;57446.81;;;-144.48;64.84
10688;BME280;5392;42.688;23.298;2023-04-09T10:55:33;57409.25;;;-144.48;65.91
10688;BME280;5392;42.688;23.298;2023-04-09T10:58:02;57423.88;;;-144.48;66.06
10688;BME280;5392;42.688;23.298;2023-04-09T11:00:28;57430.13;;;-144.48;64.68
10688;BME280;5392;42.688;23.298;2023-04-09T11:05:32;57463.53;;;-144.48;66.55
10688;BME280;5392;42.688;23.298;2023-04-09T11:08:10;57453.09;;;-144.48;65.98
10688;BME280;5392;42.688;23.298;2023-04-09T11:10:38;57382.13;;;-144.48;64.55
10688;BME280;5392;42.688;23.298;2023-04-09T11:13:10;57459.34;;;-144.48;65.54
10688;BME280;5392;42.688;23.298;2023-04-09T11:15:37;57407.16;;;-144.48;63.68
10688;BME280;5392;42.688;23.298;2023-04-09T11:18:04;57394.63;;;-144.48;63.11
10688;BME280;5392;42.688;23.298;2023-04-09T11:20:33;57428.03;;;-144.48;63.96
10688;BME280;5392;42.688;23.298;2023-04-09T11:23:00;57478.13;;;-144.48;62.29
10688;BME280;5392;42.688;23.298;2023-04-09T11:25:31;57423.88;;;-144.48;63.59
10688;BME280;5392;42.688;23.298;2023-04-09T11:28:00;57469.78;;;-144.48;64.30
10688;BME280;5392;42.688;23.298;2023-04-09T11:30:27;57425.94;;;-144.48;63.53
10688;BME280;5392;42.688;23.298;2023-04-09T11:32:54;57473.97;;;-144.48;63.65
10688;BME280;5392;42.688;23.298;2023-04-09T11:35:21;57425.94;;;-144.48;64.32
10688;BME280;5392;42.688;23.298;2023-04-09T11:37:49;57446.81;;;-144.48;63.23
10688;BME280;5392;42.688;23.298;2023-04-09T11:40:23;57415.50;;;-144.48;62.69
10688;BME280;5392;42.688;23.298;2023-04-09T11:42:53;57417.59;;;-144.48;64.20
10688;BME280;5392;42.688;23.298;2023-04-09T11:45:28;57453.09;;;-144.48;67.09
10688;BME280;5392;42.688;23.298;2023-04-09T11:47:55;57496.91;;;-144.48;65.53
10688;BME280;5392;42.688;23.298;2023-04-09T11:50:23;57382.13;;;-144.48;64.02
10688;BME280;5392;42.688;23.298;2023-04-09T11:52:50;57415.50;;;-144.48;62.82
10688;BME280;5392;42.688;23.298;2023-04-09T11:55:28;57421.78;;;-144.48;61.63
10688;BME280;5392;42.688;23.298;2023-04-09T11:57:57;57423.88;;;-144.48;61.69
10688;BME280;5392;42.688;23.298;2023-04-09T12:00:27;57400.91;;;-144.48;60.64
10688;BME280;5392;42.688;23.298;2023-04-09T12:03:00;57428.03;;;-144.48;60.35
10688;BME280;5392;42.688;23.298;2023-04-09T12:05:29;57396.72;;;-144.48;60.46
10688;BME280;5392;42.688;23.298;2023-04-09T12:07:58;57444.72;;;-144.48;60.71
10688;BME280;5392;42.688;23.298;2023-04-09T12:10:28;57411.34;;;-144.48;61.05
10688;BME280;5392;42.688;23.298;2023-04-09T12:13:01;57400.91;;;-144.48;61.27
10688;BME280;5392;42.688;23.298;2023-04-09T12:15:33;57438.47;;;-144.48;61.36
10688;BME280;5392;42.688;23.298;2023-04-09T12:18:00;57459.34;;;-144.48;61.22
10688;BME280;5392;42.688;23.298;2023-04-09T12:20:36;57457.25;;;-144.48;60.88
10688;BME280;5392;42.688;23.298;2023-04-09T12:23:06;57438.47;;;-144.48;60.74
10688;BME280;5392;42.688;23.298;2023-04-09T12:25:35;57440.56;;;-144.48;61.26
10688;BME280;5392;42.688;23.298;2023-04-09T12:28:06;57442.66;;;-144.48;59.83
10688;BME280;5392;42.688;23.298;2023-04-09T12:30:34;57423.88;;;-144.48;60.35
10688;BME280;5392;42.688;23.298;2023-04-09T12:33:02;57423.88;;;-144.48;60.70
10688;BME280;5392;42.688;23.298;2023-04-09T12:35:29;57444.72;;;-144.48;62.00
10688;BME280;5392;42.688;23.298;2023-04-09T12:37:56;57442.66;;;-144.48;61.78
10688;BME280;5392;42.688;23.298;2023-04-09T12:40:25;57442.66;;;-144.48;61.45
10688;BME280;5392;42.688;23.298;2023-04-09T12:42:52;57442.66;;;-144.48;61.67
10688;BME280;5392;42.688;23.298;2023-04-09T12:45:20;57425.94;;;-144.48;60.98
10688;BME280;5392;42.688;23.298;2023-04-09T12:47:47;57415.50;;;-144.48;62.74
10688;BME280;5392;42.688;23.298;2023-04-09T12:50:15;57455.16;;;-144.48;62.67